sensor_id;sensor_type;location;lat;lon;timestamp;temperature;humidity
1225;DHT22;602;48.000;7.840;2023-05-19T00:01:07;16.70;99.90
1225;DHT22;602;48.000;7.840;2023-05-19T00:03:35;16.50;99.90
1225;DHT22;602;48.000;7.840;2023-05-19T00:06:06;16.50;99.90
1225;DHT22;602;48.000;7.840;2023-05-19T00:08:37;16.50;99.90
1225;DHT22;602;48.000;7.840;2023-05-19T00:11:04;16.50;99.90
1225;DHT22;602;48.000;7.840;2023-05-19T00:13:32;16.50;99.90
1225;DHT22;602;48.000;7.840;2023-05-19T00:15:59;16.40;99.90
1225;DHT22;602;48.000;7.840;2023-05-19T00:18:26;16.40;99.90
1225;DHT22;602;48.000;7.840;2023-05-19T00:20:54;16.40;99.90
1225;DHT22;602;48.000;7.840;2023-05-19T00:23:21;16.30;99.90
1225;DHT22;602;48.000;7.840;2023-05-19T00:25:49;16.30;99.90
1225;DHT22;602;48.000;7.840;2023-05-19T00:28:16;16.30;99.90
1225;DHT22;602;48.000;7.840;2023-05-19T00:30:43;16.30;99.90
1225;DHT22;602;48.000;7.840;2023-05-19T00:33:10;16.20;99.90
1225;DHT22;602;48.000;7.840;2023-05-19T00:35:37;16.30;99.90
1225;DHT22;602;48.000;7.840;2023-05-19T00:38:05;16.30;99.90
1225;DHT22;602;48.000;7.840;2023-05-19T00:40:34;16.30;99.90
1225;DHT22;602;48.000;7.840;2023-05-19T00:43:02;16.30;99.90
1225;DHT22;602;48.000;7.840;2023-05-19T00:45:33;16.30;99.90
1225;DHT22;602;48.000;7.840;2023-05-19T00:48:00;16.40;99.90
1225;DHT22;602;48.000;7.840;2023-05-19T00:50:27;16.20;99.90
1225;DHT22;602;48.000;7.840;2023-05-19T00:52:54;16.30;99.90
1225;DHT22;602;48.000;7.840;2023-05-19T00:55:22;16.20;99.90
1225;DHT22;602;48.000;7.840;2023-05-19T00:57:50;16.20;99.90
1225;DHT22;602;48.000;7.840;2023-05-19T01:00:20;16.10;99.90
1225;DHT22;602;48.000;7.840;2023-05-19T01:02:47;16.10;99.90
1225;DHT22;602;48.000;7.840;2023-05-19T01:05:15;16.10;99.90
1225;DHT22;602;48.000;7.840;2023-05-19T01:07:42;16.10;99.90
1225;DHT22;602;48.000;7.840;2023-05-19T01:10:09;16.00;99.90
1225;DHT22;602;48.000;7.840;2023-05-19T01:12:36;16.00;99.90
1225;DHT22;602;48.000;7.840;2023-05-19T01:15:04;15.90;99.90
1225;DHT22;602;48.000;7.840;2023-05-19T01:17:37;15.90;99.90
1225;DHT22;602;48.000;7.840;2023-05-19T01:20:14;16.00;99.90
1225;DHT22;602;48.000;7.840;2023-05-19T01:23:07;16.00;99.90
1225;DHT22;602;48.000;7.840;2023-05-19T01:25:55;16.00;99.90
1225;DHT22;602;48.000;7.840;2023-05-19T01:28:37;15.90;99.90
1225;DHT22;602;48.000;7.840;2023-05-19T01:31:11;15.90;99.90
1225;DHT22;602;48.000;7.840;2023-05-19T01:33:40;15.90;99.90
1225;DHT22;602;48.000;7.840;2023-05-19T01:36:10;16.00;99.90
1225;DHT22;602;48.000;7.840;2023-05-19T01:38:38;15.90;99.90
1225;DHT22;602;48.000;7.840;2023-05-19T01:41:05;16.00;99.90
1225;DHT22;602;48.000;7.840;2023-05-19T01:43:33;15.90;99.90
1225;DHT22;602;48.000;7.840;2023-05-19T01:46:01;15.90;99.90
1225;DHT22;602;48.000;7.840;2023-05-19T01:48:30;15.90;99.90
1225;DHT22;602;48.000;7.840;2023-05-19T01:50:57;15.80;99.90
1225;DHT22;602;48.000;7.840;2023-05-19T01:53:24;15.80;99.90
1225;DHT22;602;48.000;7.840;2023-05-19T01:55:54;15.70;99.90
1225;DHT22;602;48.000;7.840;2023-05-19T01:58:27;15.70;99.90
1225;DHT22;602;48.000;7.840;2023-05-19T02:01:00;15.60;99.90
1225;DHT22;602;48.000;7.840;2023-05-19T02:03:51;15.60;99.90
1225;DHT22;602;48.000;7.840;2023-05-19T02:06:29;15.60;99.90
1225;DHT22;602;48.000;7.840;2023-05-19T02:09:02;15.70;99.90
1225;DHT22;602;48.000;7.840;2023-05-19T02:11:34;15.60;99.90
1225;DHT22;602;48.000;7.840;2023-05-19T02:14:07;15.60;99.90
1225;DHT22;602;48.000;7.840;2023-05-19T02:16:35;15.50;99.90
1225;DHT22;602;48.000;7.840;2023-05-19T02:19:05;15.50;99.90
1225;DHT22;602;48.000;7.840;2023-05-19T02:21:32;15.50;99.90
1225;DHT22;602;48.000;7.840;2023-05-19T02:23:59;15.50;99.90
1225;DHT22;602;48.000;7.840;2023-05-19T02:26:26;15.50;99.90
1225;DHT22;602;48.000;7.840;2023-05-19T02:28:53;15.40;99.90
1225;DHT22;602;48.000;7.840;2023-05-19T02:31:19;15.40;99.90
1225;DHT22;602;48.000;7.840;2023-05-19T02:33:46;15.40;99.90
1225;DHT22;602;48.000;7.840;2023-05-19T02:36:14;15.40;99.90
1225;DHT22;602;48.000;7.840;2023-05-19T02:38:41;15.30;99.90
1225;DHT22;602;48.000;7.840;2023-05-19T02:41:08;15.30;99.90
1225;DHT22;602;48.000;7.840;2023-05-19T02:43:35;15.40;99.90
1225;DHT22;602;48.000;7.840;2023-05-19T02:46:02;15.30;99.90
1225;DHT22;602;48.000;7.840;2023-05-19T02:48:28;15.30;99.90
1225;DHT22;602;48.000;7.840;2023-05-19T02:50:55;15.30;99.90
1225;DHT22;602;48.000;7.840;2023-05-19T02:53:23;15.30;99.90
1225;DHT22;602;48.000;7.840;2023-05-19T02:55:50;15.30;99.90
1225;DHT22;602;48.000;7.840;2023-05-19T02:58:17;15.40;99.90
1225;DHT22;602;48.000;7.840;2023-05-19T03:00:45;15.30;99.90
1225;DHT22;602;48.000;7.840;2023-05-19T03:03:12;15.30;99.90
1225;DHT22;602;48.000;7.840;2023-05-19T03:05:40;15.10;99.90
1225;DHT22;602;48.000;7.840;2023-05-19T03:08:06;15.10;99.90
1225;DHT22;602;48.000;7.840;2023-05-19T03:10:35;15.10;99.90
1225;DHT22;602;48.000;7.840;2023-05-19T03:13:02;15.00;99.90
1225;DHT22;602;48.000;7.840;2023-05-19T03:15:28;15.00;99.90
1225;DHT22;602;48.000;7.840;2023-05-19T03:17:55;14.90;99.90
1225;DHT22;602;48.000;7.840;2023-05-19T03:20:22;14.90;99.90
1225;DHT22;602;48.000;7.840;2023-05-19T03:22:49;14.70;99.90
1225;DHT22;602;48.000;7.840;2023-05-19T03:25:16;14.60;99.90
1225;DHT22;602;48.000;7.840;2023-05-19T03:27:45;14.50;99.90
1225;DHT22;602;48.000;7.840;2023-05-19T03:30:12;14.50;99.90
1225;DHT22;602;48.000;7.840;2023-05-19T03:32:39;14.40;99.90
1225;DHT22;602;48.000;7.840;2023-05-19T03:35:07;14.40;99.90
1225;DHT22;602;48.000;7.840;2023-05-19T03:37:34;14.40;99.90
1225;DHT22;602;48.000;7.840;2023-05-19T03:40:01;14.20;99.90
1225;DHT22;602;48.000;7.840;2023-05-19T03:42:29;14.10;99.90
1225;DHT22;602;48.000;7.840;2023-05-19T03:44:57;14.00;99.90
1225;DHT22;602;48.000;7.840;2023-05-19T03:47:24;13.80;99.90
1225;DHT22;602;48.000;7.840;2023-05-19T03:49:51;13.80;99.90
1225;DHT22;602;48.000;7.840;2023-05-19T03:52:17;13.70;99.90
1225;DHT22;602;48.000;7.840;2023-05-19T03:54:44;13.60;99.90
1225;DHT22;602;48.000;7.840;2023-05-19T03:57:11;13.60;99.90
1225;DHT22;602;48.000;7.840;2023-05-19T03:59:38;13.50;99.90
1225;DHT22;602;48.000;7.840;2023-05-19T04:02:07;13.60;99.90
1225;DHT22;602;48.000;7.840;2023-05-19T04:04:34;13.50;99.90
1225;DHT22;602;48.000;7.840;2023-05-19T04:07:01;13.40;99.90
1225;DHT22;602;48.000;7.840;2023-05-19T04:09:28;13.40;99.90
1225;DHT22;602;48.000;7.840;2023-05-19T04:11:56;13.30;99.90
1225;DHT22;602;48.000;7.840;2023-05-19T04:14:23;13.30;99.90
1225;DHT22;602;48.000;7.840;2023-05-19T04:16:50;13.30;99.90
1225;DHT22;602;48.000;7.840;2023-05-19T04:19:19;13.30;99.90
1225;DHT22;602;48.000;7.840;2023-05-19T04:21:46;13.20;99.90
1225;DHT22;602;48.000;7.840;2023-05-19T04:24:13;13.20;99.90
1225;DHT22;602;48.000;7.840;2023-05-19T04:26:39;13.30;99.90
1225;DHT22;602;48.000;7.840;2023-05-19T04:29:10;13.10;99.90
1225;DHT22;602;48.000;7.840;2023-05-19T04:31:38;13.00;99.90
1225;DHT22;602;48.000;7.840;2023-05-19T04:34:05;13.00;99.90
1225;DHT22;602;48.000;7.840;2023-05-19T04:36:35;13.00;99.90
1225;DHT22;602;48.000;7.840;2023-05-19T04:39:03;13.00;99.90
1225;DHT22;602;48.000;7.840;2023-05-19T04:41:32;13.10;99.90
1225;DHT22;602;48.000;7.840;2023-05-19T04:43:59;13.00;99.90
1225;DHT22;602;48.000;7.840;2023-05-19T04:46:26;12.90;99.90
1225;DHT22;602;48.000;7.840;2023-05-19T04:48:54;12.90;99.90
1225;DHT22;602;48.000;7.840;2023-05-19T04:51:21;12.90;99.90
1225;DHT22;602;48.000;7.840;2023-05-19T04:53:54;12.90;99.90
1225;DHT22;602;48.000;7.840;2023-05-19T04:56:21;12.80;99.90
1225;DHT22;602;48.000;7.840;2023-05-19T04:58:47;12.70;99.90
1225;DHT22;602;48.000;7.840;2023-05-19T05:01:15;12.80;99.90
1225;DHT22;602;48.000;7.840;2023-05-19T05:03:42;12.70;99.90
1225;DHT22;602;48.000;7.840;2023-05-19T05:06:09;12.80;99.90
1225;DHT22;602;48.000;7.840;2023-05-19T05:08:36;12.70;99.90
1225;DHT22;602;48.000;7.840;2023-05-19T05:11:07;12.70;99.90
1225;DHT22;602;48.000;7.840;2023-05-19T05:13:34;12.70;99.90
1225;DHT22;602;48.000;7.840;2023-05-19T05:16:02;12.80;99.90
1225;DHT22;602;48.000;7.840;2023-05-19T05:18:31;12.80;99.90
1225;DHT22;602;48.000;7.840;2023-05-19T05:20:59;12.80;99.90
1225;DHT22;602;48.000;7.840;2023-05-19T05:23:26;12.80;99.90
1225;DHT22;602;48.000;7.840;2023-05-19T05:25:53;12.80;99.90
1225;DHT22;602;48.000;7.840;2023-05-19T05:28:22;12.80;99.90
1225;DHT22;602;48.000;7.840;2023-05-19T05:30:49;12.60;99.90
1225;DHT22;602;48.000;7.840;2023-05-19T05:33:16;12.60;99.90
1225;DHT22;602;48.000;7.840;2023-05-19T05:35:43;12.60;99.90
1225;DHT22;602;48.000;7.840;2023-05-19T05:38:32;12.50;99.90
1225;DHT22;602;48.000;7.840;2023-05-19T05:44:29;12.50;99.90
1225;DHT22;602;48.000;7.840;2023-05-19T05:46:56;12.60;99.90
1225;DHT22;602;48.000;7.840;2023-05-19T05:49:23;12.60;99.90
1225;DHT22;602;48.000;7.840;2023-05-19T05:51:51;12.60;99.90
1225;DHT22;602;48.000;7.840;2023-05-19T05:54:21;12.70;99.90
1225;DHT22;602;48.000;7.840;2023-05-19T05:56:50;12.70;99.90
1225;DHT22;602;48.000;7.840;2023-05-19T05:59:17;12.70;99.90
1225;DHT22;602;48.000;7.840;2023-05-19T06:01:46;12.70;99.90
1225;DHT22;602;48.000;7.840;2023-05-19T06:04:13;12.80;99.90
1225;DHT22;602;48.000;7.840;2023-05-19T06:06:40;12.90;99.90
1225;DHT22;602;48.000;7.840;2023-05-19T06:09:07;13.00;99.90
1225;DHT22;602;48.000;7.840;2023-05-19T06:11:40;13.00;99.90
1225;DHT22;602;48.000;7.840;2023-05-19T06:14:07;13.00;99.90
1225;DHT22;602;48.000;7.840;2023-05-19T06:16:34;13.20;99.90
1225;DHT22;602;48.000;7.840;2023-05-19T06:19:02;13.20;99.90
1225;DHT22;602;48.000;7.840;2023-05-19T06:21:29;13.20;99.90
1225;DHT22;602;48.000;7.840;2023-05-19T06:23:56;13.30;99.90
1225;DHT22;602;48.000;7.840;2023-05-19T06:26:25;13.40;99.90
1225;DHT22;602;48.000;7.840;2023-05-19T06:28:52;13.50;99.90
1225;DHT22;602;48.000;7.840;2023-05-19T06:31:19;13.70;99.90
1225;DHT22;602;48.000;7.840;2023-05-19T06:33:46;14.00;99.90
1225;DHT22;602;48.000;7.840;2023-05-19T06:36:14;14.20;99.90
1225;DHT22;602;48.000;7.840;2023-05-19T06:38:41;14.20;99.90
1225;DHT22;602;48.000;7.840;2023-05-19T06:41:08;14.20;99.90
1225;DHT22;602;48.000;7.840;2023-05-19T06:43:36;14.00;99.90
1225;DHT22;602;48.000;7.840;2023-05-19T06:46:04;14.10;99.90
1225;DHT22;602;48.000;7.840;2023-05-19T06:48:31;14.10;99.90
1225;DHT22;602;48.000;7.840;2023-05-19T06:50:57;14.10;99.90
1225;DHT22;602;48.000;7.840;2023-05-19T06:53:26;14.30;99.90
1225;DHT22;602;48.000;7.840;2023-05-19T06:55:53;14.40;99.90
1225;DHT22;602;48.000;7.840;2023-05-19T06:58:20;14.50;99.90
1225;DHT22;602;48.000;7.840;2023-05-19T07:00:47;14.60;99.90
1225;DHT22;602;48.000;7.840;2023-05-19T07:03:14;14.70;99.90
1225;DHT22;602;48.000;7.840;2023-05-19T07:05:40;14.90;99.90
1225;DHT22;602;48.000;7.840;2023-05-19T07:08:07;15.10;99.90
1225;DHT22;602;48.000;7.840;2023-05-19T07:10:36;15.50;99.90
1225;DHT22;602;48.000;7.840;2023-05-19T07:13:03;15.80;99.90
1225;DHT22;602;48.000;7.840;2023-05-19T07:15:30;16.10;99.90
1225;DHT22;602;48.000;7.840;2023-05-19T07:17:57;16.50;99.90
1225;DHT22;602;48.000;7.840;2023-05-19T07:20:24;16.70;99.90
1225;DHT22;602;48.000;7.840;2023-05-19T07:22:51;17.00;99.90
1225;DHT22;602;48.000;7.840;2023-05-19T07:25:18;17.30;99.90
1225;DHT22;602;48.000;7.840;2023-05-19T07:27:46;17.60;99.90
1225;DHT22;602;48.000;7.840;2023-05-19T07:30:13;17.90;99.90
1225;DHT22;602;48.000;7.840;2023-05-19T07:32:40;18.10;99.90
1225;DHT22;602;48.000;7.840;2023-05-19T07:35:07;18.30;99.90
1225;DHT22;602;48.000;7.840;2023-05-19T07:37:34;18.30;99.90
1225;DHT22;602;48.000;7.840;2023-05-19T07:40:04;18.60;99.90
1225;DHT22;602;48.000;7.840;2023-05-19T07:42:32;18.90;99.90
1225;DHT22;602;48.000;7.840;2023-05-19T07:45:00;19.10;99.90
1225;DHT22;602;48.000;7.840;2023-05-19T07:47:28;19.40;99.90
1225;DHT22;602;48.000;7.840;2023-05-19T07:49:56;19.70;99.90
1225;DHT22;602;48.000;7.840;2023-05-19T07:52:23;20.00;99.90
1225;DHT22;602;48.000;7.840;2023-05-19T07:54:49;20.10;99.90
1225;DHT22;602;48.000;7.840;2023-05-19T07:57:17;20.40;99.90
1225;DHT22;602;48.000;7.840;2023-05-19T07:59:44;20.80;99.90
1225;DHT22;602;48.000;7.840;2023-05-19T08:02:12;20.80;99.90
1225;DHT22;602;48.000;7.840;2023-05-19T08:04:39;21.10;99.90
1225;DHT22;602;48.000;7.840;2023-05-19T08:07:07;21.40;99.90
1225;DHT22;602;48.000;7.840;2023-05-19T08:09:34;21.70;99.90
1225;DHT22;602;48.000;7.840;2023-05-19T08:12:01;22.00;99.90
1225;DHT22;602;48.000;7.840;2023-05-19T08:14:29;22.20;99.90
1225;DHT22;602;48.000;7.840;2023-05-19T08:16:58;22.50;99.90
1225;DHT22;602;48.000;7.840;2023-05-19T08:19:26;22.90;99.90
1225;DHT22;602;48.000;7.840;2023-05-19T08:21:53;23.20;99.90
1225;DHT22;602;48.000;7.840;2023-05-19T08:24:20;23.30;99.90
1225;DHT22;602;48.000;7.840;2023-05-19T08:26:47;23.40;99.90
1225;DHT22;602;48.000;7.840;2023-05-19T08:29:14;23.60;99.90
1225;DHT22;602;48.000;7.840;2023-05-19T08:31:41;23.70;99.90
1225;DHT22;602;48.000;7.840;2023-05-19T08:34:08;23.50;99.90
1225;DHT22;602;48.000;7.840;2023-05-19T08:36:36;23.40;99.90
1225;DHT22;602;48.000;7.840;2023-05-19T08:39:03;23.20;99.90
1225;DHT22;602;48.000;7.840;2023-05-19T08:41:31;23.20;99.90
1225;DHT22;602;48.000;7.840;2023-05-19T08:43:58;23.30;99.90
1225;DHT22;602;48.000;7.840;2023-05-19T08:46:25;23.40;99.90
1225;DHT22;602;48.000;7.840;2023-05-19T08:48:59;23.40;99.90
1225;DHT22;602;48.000;7.840;2023-05-19T08:51:34;23.30;99.90
1225;DHT22;602;48.000;7.840;2023-05-19T08:54:11;22.90;99.90
1225;DHT22;602;48.000;7.840;2023-05-19T08:56:41;22.80;99.90
1225;DHT22;602;48.000;7.840;2023-05-19T08:59:09;22.70;99.90
1225;DHT22;602;48.000;7.840;2023-05-19T09:01:37;22.80;99.90
1225;DHT22;602;48.000;7.840;2023-05-19T09:04:05;22.80;99.90
1225;DHT22;602;48.000;7.840;2023-05-19T09:06:32;22.80;99.90
1225;DHT22;602;48.000;7.840;2023-05-19T09:08:59;22.60;99.90
1225;DHT22;602;48.000;7.840;2023-05-19T09:11:27;22.40;99.90
1225;DHT22;602;48.000;7.840;2023-05-19T09:13:57;22.50;99.90
1225;DHT22;602;48.000;7.840;2023-05-19T09:16:24;22.60;99.90
1225;DHT22;602;48.000;7.840;2023-05-19T09:18:55;22.50;99.90
1225;DHT22;602;48.000;7.840;2023-05-19T09:21:29;22.60;99.90
1225;DHT22;602;48.000;7.840;2023-05-19T09:23:57;22.70;99.90
1225;DHT22;602;48.000;7.840;2023-05-19T09:26:24;22.70;99.90
1225;DHT22;602;48.000;7.840;2023-05-19T09:28:57;22.40;99.90
1225;DHT22;602;48.000;7.840;2023-05-19T09:31:24;22.50;99.90
1225;DHT22;602;48.000;7.840;2023-05-19T09:33:57;22.60;99.90
1225;DHT22;602;48.000;7.840;2023-05-19T09:36:24;22.50;99.90
1225;DHT22;602;48.000;7.840;2023-05-19T09:38:51;22.20;99.90
1225;DHT22;602;48.000;7.840;2023-05-19T09:41:18;22.10;99.90
1225;DHT22;602;48.000;7.840;2023-05-19T09:43:54;22.10;99.90
1225;DHT22;602;48.000;7.840;2023-05-19T09:46:24;22.20;99.90
1225;DHT22;602;48.000;7.840;2023-05-19T09:48:56;22.40;99.90
1225;DHT22;602;48.000;7.840;2023-05-19T09:51:23;22.20;99.90
1225;DHT22;602;48.000;7.840;2023-05-19T09:53:51;22.30;99.90
1225;DHT22;602;48.000;7.840;2023-05-19T09:56:18;22.30;99.90
1225;DHT22;602;48.000;7.840;2023-05-19T09:58:48;22.50;99.90
1225;DHT22;602;48.000;7.840;2023-05-19T10:01:16;22.70;99.90
1225;DHT22;602;48.000;7.840;2023-05-19T10:03:45;22.70;99.90
1225;DHT22;602;48.000;7.840;2023-05-19T10:06:13;22.50;99.90
1225;DHT22;602;48.000;7.840;2023-05-19T10:08:41;22.30;99.90
1225;DHT22;602;48.000;7.840;2023-05-19T10:11:10;22.30;99.90
1225;DHT22;602;48.000;7.840;2023-05-19T10:16:13;22.20;99.90
1225;DHT22;602;48.000;7.840;2023-05-19T10:18:43;22.10;99.90
1225;DHT22;602;48.000;7.840;2023-05-19T10:21:11;22.10;99.90
1225;DHT22;602;48.000;7.840;2023-05-19T10:23:38;22.20;99.90
1225;DHT22;602;48.000;7.840;2023-05-19T10:26:06;22.20;99.90
1225;DHT22;602;48.000;7.840;2023-05-19T10:28:35;22.20;99.90
1225;DHT22;602;48.000;7.840;2023-05-19T10:31:06;22.50;99.90
1225;DHT22;602;48.000;7.840;2023-05-19T10:33:51;22.50;99.90
1225;DHT22;602;48.000;7.840;2023-05-19T10:36:44;22.30;99.90
1225;DHT22;602;48.000;7.840;2023-05-19T10:39:16;22.10;99.90
1225;DHT22;602;48.000;7.840;2023-05-19T10:41:49;22.00;99.90
1225;DHT22;602;48.000;7.840;2023-05-19T10:44:27;22.10;99.90
1225;DHT22;602;48.000;7.840;2023-05-19T10:46:55;22.00;99.90
1225;DHT22;602;48.000;7.840;2023-05-19T10:49:23;21.90;99.90
1225;DHT22;602;48.000;7.840;2023-05-19T10:51:51;22.00;99.90
1225;DHT22;602;48.000;7.840;2023-05-19T10:54:38;22.10;99.90
1225;DHT22;602;48.000;7.840;2023-05-19T10:57:05;22.10;99.90
1225;DHT22;602;48.000;7.840;2023-05-19T10:59:35;22.10;99.90
1225;DHT22;602;48.000;7.840;2023-05-19T11:02:04;22.10;99.90
1225;DHT22;602;48.000;7.840;2023-05-19T11:04:46;22.10;99.90
1225;DHT22;602;48.000;7.840;2023-05-19T11:07:16;22.00;99.90
1225;DHT22;602;48.000;7.840;2023-05-19T11:09:48;22.00;99.90
1225;DHT22;602;48.000;7.840;2023-05-19T11:12:19;22.00;99.90
1225;DHT22;602;48.000;7.840;2023-05-19T11:14:47;22.00;99.90
1225;DHT22;602;48.000;7.840;2023-05-19T11:17:14;22.00;99.90
1225;DHT22;602;48.000;7.840;2023-05-19T11:19:53;22.00;99.90
1225;DHT22;602;48.000;7.840;2023-05-19T11:22:22;22.10;99.90
1225;DHT22;602;48.000;7.840;2023-05-19T11:24:50;22.20;99.90
1225;DHT22;602;48.000;7.840;2023-05-19T11:27:28;22.30;99.90
1225;DHT22;602;48.000;7.840;2023-05-19T11:29:56;22.50;99.90
1225;DHT22;602;48.000;7.840;2023-05-19T11:32:26;22.60;99.90
1225;DHT22;602;48.000;7.840;2023-05-19T11:34:55;22.70;99.90
1225;DHT22;602;48.000;7.840;2023-05-19T11:37:23;23.10;99.90
1225;DHT22;602;48.000;7.840;2023-05-19T11:39:50;23.40;99.90
1225;DHT22;602;48.000;7.840;2023-05-19T11:42:17;23.50;99.90
1225;DHT22;602;48.000;7.840;2023-05-19T11:44:45;23.40;99.90
1225;DHT22;602;48.000;7.840;2023-05-19T11:47:12;23.50;99.90
1225;DHT22;602;48.000;7.840;2023-05-19T11:49:42;23.50;99.90
1225;DHT22;602;48.000;7.840;2023-05-19T11:52:11;23.70;99.90
1225;DHT22;602;48.000;7.840;2023-05-19T11:54:38;23.50;99.90
1225;DHT22;602;48.000;7.840;2023-05-19T11:57:07;23.70;99.90
1225;DHT22;602;48.000;7.840;2023-05-19T11:59:36;23.80;99.90
1225;DHT22;602;48.000;7.840;2023-05-19T12:02:15;23.70;99.90
1225;DHT22;602;48.000;7.840;2023-05-19T12:04:43;23.70;99.90
1225;DHT22;602;48.000;7.840;2023-05-19T12:07:11;23.50;99.90
1225;DHT22;602;48.000;7.840;2023-05-19T12:09:39;23.30;99.90
1225;DHT22;602;48.000;7.840;2023-05-19T12:12:07;23.50;99.90
1225;DHT22;602;48.000;7.840;2023-05-19T12:14:34;23.50;99.90
1225;DHT22;602;48.000;7.840;2023-05-19T12:17:09;23.50;99.90
1225;DHT22;602;48.000;7.840;2023-05-19T12:19:36;23.50;99.90
1225;DHT22;602;48.000;7.840;2023-05-19T12:22:05;23.50;99.90
1225;DHT22;602;48.000;7.840;2023-05-19T12:24:34;23.50;99.90
1225;DHT22;602;48.000;7.840;2023-05-19T12:27:08;23.30;99.90
1225;DHT22;602;48.000;7.840;2023-05-19T12:29:35;23.40;99.90
1225;DHT22;602;48.000;7.840;2023-05-19T12:32:03;23.30;99.90
1225;DHT22;602;48.000;7.840;2023-05-19T12:34:30;23.20;99.90
1225;DHT22;602;48.000;7.840;2023-05-19T12:36:57;23.20;99.90
1225;DHT22;602;48.000;7.840;2023-05-19T12:39:25;23.20;99.90
1225;DHT22;602;48.000;7.840;2023-05-19T12:42:00;23.20;99.90
1225;DHT22;602;48.000;7.840;2023-05-19T12:44:27;23.10;99.90
1225;DHT22;602;48.000;7.840;2023-05-19T12:46:56;23.10;99.90
1225;DHT22;602;48.000;7.840;2023-05-19T12:49:23;23.20;99.90
1225;DHT22;602;48.000;7.840;2023-05-19T12:51:51;23.10;99.90
1225;DHT22;602;48.000;7.840;2023-05-19T12:54:18;23.20;99.90
1225;DHT22;602;48.000;7.840;2023-05-19T12:56:49;23.10;99.90
1225;DHT22;602;48.000;7.840;2023-05-19T12:59:22;22.90;99.90
1225;DHT22;602;48.000;7.840;2023-05-19T13:01:56;22.80;99.90
1225;DHT22;602;48.000;7.840;2023-05-19T13:04:23;22.80;99.90
1225;DHT22;602;48.000;7.840;2023-05-19T13:06:51;22.60;99.90
1225;DHT22;602;48.000;7.840;2023-05-19T13:09:18;22.80;99.90
1225;DHT22;602;48.000;7.840;2023-05-19T13:11:46;22.80;99.90
1225;DHT22;602;48.000;7.840;2023-05-19T13:14:15;22.80;99.90
1225;DHT22;602;48.000;7.840;2023-05-19T13:16:44;22.90;99.90
1225;DHT22;602;48.000;7.840;2023-05-19T13:19:12;22.90;99.90
1225;DHT22;602;48.000;7.840;2023-05-19T13:21:39;23.00;99.90
1225;DHT22;602;48.000;7.840;2023-05-19T13:24:06;23.00;99.90
1225;DHT22;602;48.000;7.840;2023-05-19T13:26:33;23.10;99.90
1225;DHT22;602;48.000;7.840;2023-05-19T13:29:00;23.20;99.90
1225;DHT22;602;48.000;7.840;2023-05-19T13:31:28;23.40;99.90
1225;DHT22;602;48.000;7.840;2023-05-19T13:33:56;23.30;99.90
1225;DHT22;602;48.000;7.840;2023-05-19T13:36:24;23.30;99.90
1225;DHT22;602;48.000;7.840;2023-05-19T13:38:51;23.20;99.90
1225;DHT22;602;48.000;7.840;2023-05-19T13:41:22;23.00;99.90
1225;DHT22;602;48.000;7.840;2023-05-19T13:43:50;23.00;99.90
1225;DHT22;602;48.000;7.840;2023-05-19T13:46:17;22.90;99.90
1225;DHT22;602;48.000;7.840;2023-05-19T13:48:44;22.70;99.90
1225;DHT22;602;48.000;7.840;2023-05-19T13:51:12;22.50;99.90
1225;DHT22;602;48.000;7.840;2023-05-19T13:53:39;22.40;99.90
1225;DHT22;602;48.000;7.840;2023-05-19T13:56:06;22.30;99.90
1225;DHT22;602;48.000;7.840;2023-05-19T13:58:33;22.10;99.90
1225;DHT22;602;48.000;7.840;2023-05-19T14:01:00;22.10;99.90
1225;DHT22;602;48.000;7.840;2023-05-19T14:03:27;22.10;99.90
1225;DHT22;602;48.000;7.840;2023-05-19T14:05:54;22.00;99.90
1225;DHT22;602;48.000;7.840;2023-05-19T14:08:22;21.90;99.90
1225;DHT22;602;48.000;7.840;2023-05-19T14:10:50;21.90;99.90
1225;DHT22;602;48.000;7.840;2023-05-19T14:13:17;21.90;99.90
1225;DHT22;602;48.000;7.840;2023-05-19T14:15:45;21.80;99.90
1225;DHT22;602;48.000;7.840;2023-05-19T14:18:13;21.80;99.90
1225;DHT22;602;48.000;7.840;2023-05-19T14:20:40;21.70;99.90
1225;DHT22;602;48.000;7.840;2023-05-19T14:23:07;21.70;99.90
1225;DHT22;602;48.000;7.840;2023-05-19T14:25:35;21.50;99.90
1225;DHT22;602;48.000;7.840;2023-05-19T14:28:05;21.60;99.90
1225;DHT22;602;48.000;7.840;2023-05-19T14:30:32;21.50;99.90
1225;DHT22;602;48.000;7.840;2023-05-19T14:32:59;21.00;99.90
1225;DHT22;602;48.000;7.840;2023-05-19T14:35:26;21.10;99.90
1225;DHT22;602;48.000;7.840;2023-05-19T14:37:53;21.30;99.90
1225;DHT22;602;48.000;7.840;2023-05-19T14:40:20;21.40;99.90
1225;DHT22;602;48.000;7.840;2023-05-19T14:42:48;21.50;99.90
1225;DHT22;602;48.000;7.840;2023-05-19T14:45:15;21.60;99.90
1225;DHT22;602;48.000;7.840;2023-05-19T14:47:42;21.60;99.90
1225;DHT22;602;48.000;7.840;2023-05-19T14:50:09;21.50;99.90
1225;DHT22;602;48.000;7.840;2023-05-19T14:52:36;21.50;99.90
1225;DHT22;602;48.000;7.840;2023-05-19T14:55:03;21.60;99.90
1225;DHT22;602;48.000;7.840;2023-05-19T14:57:30;21.70;99.90
1225;DHT22;602;48.000;7.840;2023-05-19T14:59:58;21.60;99.90
1225;DHT22;602;48.000;7.840;2023-05-19T15:02:25;21.50;99.90
1225;DHT22;602;48.000;7.840;2023-05-19T15:04:52;21.40;99.90
1225;DHT22;602;48.000;7.840;2023-05-19T15:07:18;21.30;99.90
1225;DHT22;602;48.000;7.840;2023-05-19T15:09:46;21.00;99.90
1225;DHT22;602;48.000;7.840;2023-05-19T15:12:13;21.00;99.90
1225;DHT22;602;48.000;7.840;2023-05-19T15:14:39;21.10;99.90
1225;DHT22;602;48.000;7.840;2023-05-19T15:17:08;21.10;99.90
1225;DHT22;602;48.000;7.840;2023-05-19T15:19:35;21.00;99.90
1225;DHT22;602;48.000;7.840;2023-05-19T15:22:01;21.10;99.90
1225;DHT22;602;48.000;7.840;2023-05-19T15:24:28;21.00;99.90
1225;DHT22;602;48.000;7.840;2023-05-19T15:26:55;21.00;99.90
1225;DHT22;602;48.000;7.840;2023-05-19T15:29:22;20.90;99.90
1225;DHT22;602;48.000;7.840;2023-05-19T15:31:49;21.00;99.90
1225;DHT22;602;48.000;7.840;2023-05-19T15:34:18;21.00;99.90
1225;DHT22;602;48.000;7.840;2023-05-19T15:36:45;21.00;99.90
1225;DHT22;602;48.000;7.840;2023-05-19T15:39:12;20.90;99.90
1225;DHT22;602;48.000;7.840;2023-05-19T15:41:39;21.00;99.90
1225;DHT22;602;48.000;7.840;2023-05-19T15:44:11;20.90;99.90
1225;DHT22;602;48.000;7.840;2023-05-19T15:46:38;21.00;99.90
1225;DHT22;602;48.000;7.840;2023-05-19T15:49:05;20.90;99.90
1225;DHT22;602;48.000;7.840;2023-05-19T15:51:33;20.70;99.90
1225;DHT22;602;48.000;7.840;2023-05-19T15:54:00;20.60;99.90
1225;DHT22;602;48.000;7.840;2023-05-19T15:56:27;20.50;99.90
1225;DHT22;602;48.000;7.840;2023-05-19T15:58:54;20.50;99.90
1225;DHT22;602;48.000;7.840;2023-05-19T16:01:21;20.60;99.90
1225;DHT22;602;48.000;7.840;2023-05-19T16:03:48;20.60;99.90
1225;DHT22;602;48.000;7.840;2023-05-19T16:06:15;20.70;99.90
1225;DHT22;602;48.000;7.840;2023-05-19T16:08:43;20.60;99.90
1225;DHT22;602;48.000;7.840;2023-05-19T16:11:10;20.60;99.90
1225;DHT22;602;48.000;7.840;2023-05-19T16:13:37;20.40;99.90
1225;DHT22;602;48.000;7.840;2023-05-19T16:16:05;20.00;99.90
1225;DHT22;602;48.000;7.840;2023-05-19T16:18:32;19.80;99.90
1225;DHT22;602;48.000;7.840;2023-05-19T16:20:58;19.80;99.90
1225;DHT22;602;48.000;7.840;2023-05-19T16:23:25;19.80;99.90
1225;DHT22;602;48.000;7.840;2023-05-19T16:25:54;19.50;99.90
1225;DHT22;602;48.000;7.840;2023-05-19T16:28:21;19.60;99.90
1225;DHT22;602;48.000;7.840;2023-05-19T16:30:48;19.60;99.90